createdAt,value
2023-03-29T00:01:35.476Z,5.95
2023-03-29T00:04:41.188Z,6.09
2023-03-29T00:07:46.141Z,6.15
2023-03-29T00:10:49.702Z,6.23
2023-03-29T00:13:51.742Z,6.17
2023-03-29T00:16:53.517Z,6.28
2023-03-29T00:19:57.571Z,6.22
2023-03-29T00:22:59.774Z,6.18
2023-03-29T00:26:02.008Z,6.30
2023-03-29T00:29:03.955Z,6.32
2023-03-29T00:32:08.486Z,6.30
2023-03-29T00:35:11.858Z,6.37
2023-03-29T00:38:13.902Z,6.39
2023-03-29T00:41:15.892Z,6.36
2023-03-29T00:44:58.406Z,6.43
2023-03-29T00:48:02.819Z,6.51
2023-03-29T00:51:10.042Z,6.68
2023-03-29T00:54:15.649Z,6.58
2023-03-29T00:57:20.819Z,6.57
2023-03-29T01:00:24.173Z,6.55
2023-03-29T01:03:33.016Z,6.71
2023-03-29T01:06:43.258Z,6.80
2023-03-29T01:09:48.438Z,6.68
2023-03-29T01:12:54.670Z,6.68
2023-03-29T01:15:59.064Z,6.87
2023-03-29T01:19:02.464Z,6.95
2023-03-29T01:22:13.597Z,6.80
2023-03-29T01:25:26.291Z,6.69
2023-03-29T01:28:35.668Z,6.68
2023-03-29T01:31:42.135Z,6.66
2023-03-29T01:34:48.486Z,6.91
2023-03-29T01:37:56.906Z,6.91
2023-03-29T01:40:59.208Z,6.72
2023-03-29T01:44:07.942Z,6.69
2023-03-29T01:47:19.678Z,6.85
2023-03-29T01:50:31.350Z,6.84
2023-03-29T01:53:38.543Z,6.76
2023-03-29T01:56:43.500Z,6.81
2023-03-29T01:59:48.186Z,6.76
2023-03-29T02:02:53.394Z,6.71
2023-03-29T02:05:57.022Z,6.79
2023-03-29T02:09:04.990Z,6.76
2023-03-29T02:12:08.241Z,6.75
2023-03-29T02:15:15.129Z,6.70
2023-03-29T02:18:18.562Z,6.79
2023-03-29T02:21:26.415Z,6.84
2023-03-29T02:24:32.297Z,7.04
2023-03-29T02:27:34.238Z,6.94
2023-03-29T02:30:44.740Z,6.87
2023-03-29T02:33:52.142Z,6.92
2023-03-29T02:36:58.933Z,6.88
2023-03-29T02:40:01.542Z,6.78
2023-03-29T02:43:07.032Z,6.80
2023-03-29T02:46:11.402Z,6.70
2023-03-29T02:49:13.418Z,6.65
2023-03-29T02:52:18.368Z,6.69
2023-03-29T02:55:21.531Z,6.50
2023-03-29T02:58:26.553Z,6.57
2023-03-29T03:01:29.920Z,6.72
2023-03-29T03:04:33.324Z,6.69
2023-03-29T03:07:36.103Z,6.69
2023-03-29T03:10:40.674Z,6.78
2023-03-29T03:13:42.548Z,6.67
2023-03-29T03:16:48.156Z,6.37
2023-03-29T03:19:50.537Z,6.36
2023-03-29T03:22:52.412Z,6.36
2023-03-29T03:25:55.181Z,6.19
2023-03-29T03:28:57.452Z,5.91
2023-03-29T03:32:20.619Z,5.78
2023-03-29T03:35:41.197Z,5.71
2023-03-29T03:38:44.243Z,5.78
2023-03-29T03:41:46.510Z,5.67
2023-03-29T03:44:49.768Z,5.54
2023-03-29T03:48:11.746Z,5.44
2023-03-29T03:51:24.760Z,5.57
2023-03-29T03:54:27.257Z,5.65
2023-03-29T03:58:08.063Z,5.80
2023-03-29T04:01:10.145Z,5.77
2023-03-29T04:04:19.719Z,5.67
2023-03-29T04:07:54.272Z,5.65
2023-03-29T04:11:15.265Z,5.77
2023-03-29T04:14:17.869Z,5.87
2023-03-29T04:17:42.905Z,5.75
2023-03-29T04:21:01.273Z,5.70
2023-03-29T04:24:07.262Z,5.64
2023-03-29T04:27:12.061Z,5.68
2023-03-29T04:30:14.207Z,5.68
2023-03-29T04:33:51.599Z,5.67
2023-03-29T04:36:55.503Z,5.65
2023-03-29T04:40:04.433Z,5.56
2023-03-29T04:43:16.581Z,5.69
2023-03-29T04:46:29.307Z,5.89
2023-03-29T04:49:46.926Z,6.24
2023-03-29T04:53:00.276Z,6.21
2023-03-29T04:56:03.602Z,6.54
2023-03-29T04:59:27.998Z,6.60
2023-03-29T05:02:32.348Z,6.64
2023-03-29T05:05:34.360Z,6.56
2023-03-29T05:08:39.915Z,6.54
2023-03-29T05:12:03.876Z,6.90
2023-03-29T05:15:14.852Z,7.03
2023-03-29T05:18:16.705Z,7.01
2023-03-29T05:21:18.582Z,7.14
2023-03-29T05:24:23.144Z,7.16
2023-03-29T05:27:33.586Z,7.12
2023-03-29T05:30:40.917Z,7.06
2023-03-29T05:33:56.299Z,7.20
2023-03-29T05:37:00.881Z,7.26
2023-03-29T05:40:27.305Z,7.27
2023-03-29T05:43:54.094Z,7.18
2023-03-29T05:46:59.089Z,7.30
2023-03-29T05:50:01.106Z,7.21
2023-03-29T05:53:03.610Z,7.18
2023-03-29T05:56:08.784Z,7.29
2023-03-29T05:59:10.506Z,7.38
2023-03-29T06:02:12.814Z,7.40
2023-03-29T06:05:20.190Z,7.38
2023-03-29T06:08:36.138Z,7.42
2023-03-29T06:11:45.042Z,7.40
2023-03-29T06:14:52.783Z,7.42
2023-03-29T06:18:01.656Z,7.47
2023-03-29T06:21:04.241Z,7.53
2023-03-29T06:24:06.714Z,7.60
2023-03-29T06:27:15.513Z,7.67
2023-03-29T06:30:19.341Z,7.75
2023-03-29T06:33:25.313Z,7.81
2023-03-29T06:36:35.027Z,7.90
2023-03-29T06:39:36.836Z,7.96
2023-03-29T06:43:03.319Z,8.02
2023-03-29T06:46:24.260Z,8.15
2023-03-29T06:49:31.604Z,8.21
2023-03-29T06:52:40.456Z,8.18
2023-03-29T06:55:42.662Z,8.32
2023-03-29T06:59:14.701Z,8.42
2023-03-29T07:02:36.989Z,8.44
2023-03-29T07:05:45.853Z,8.48
2023-03-29T07:08:52.377Z,8.54
2023-03-29T07:12:08.953Z,8.58
2023-03-29T07:15:12.113Z,8.64
2023-03-29T07:18:34.270Z,8.86
2023-03-29T07:21:37.868Z,8.94
2023-03-29T07:24:40.581Z,9.00
2023-03-29T07:27:42.803Z,9.07
2023-03-29T07:30:46.870Z,9.09
2023-03-29T07:33:53.277Z,8.85
2023-03-29T07:36:55.267Z,9.10
2023-03-29T07:39:57.784Z,9.07
2023-03-29T07:43:12.969Z,9.19
2023-03-29T07:46:17.386Z,9.27
2023-03-29T07:49:21.695Z,9.26
2023-03-29T07:52:24.017Z,9.22
2023-03-29T07:55:26.084Z,9.35
2023-03-29T07:58:32.895Z,9.49
2023-03-29T08:01:35.994Z,9.68
2023-03-29T08:04:53.847Z,9.61
2023-03-29T08:08:14.368Z,9.61
2023-03-29T08:11:27.502Z,9.90
2023-03-29T08:14:36.506Z,9.72
2023-03-29T08:17:58.315Z,9.88
2023-03-29T08:21:01.282Z,10.13
2023-03-29T08:24:23.327Z,9.94
2023-03-29T08:27:30.951Z,9.90
2023-03-29T08:30:33.222Z,10.02
2023-03-29T08:33:37.589Z,10.31
2023-03-29T08:37:01.578Z,10.58
2023-03-29T08:40:19.512Z,10.58
2023-03-29T08:44:01.800Z,10.69
2023-03-29T08:47:20.901Z,10.71
2023-03-29T08:50:31.373Z,10.78
2023-03-29T08:53:38.134Z,10.60
2023-03-29T08:56:49.811Z,10.65
2023-03-29T09:00:04.551Z,10.66
2023-03-29T09:03:14.952Z,10.46
2023-03-29T09:06:21.335Z,10.94
2023-03-29T09:09:31.698Z,10.91
2023-03-29T09:12:52.100Z,11.01
2023-03-29T09:16:03.676Z,10.89
2023-03-29T09:19:22.125Z,10.95
2023-03-29T09:22:35.799Z,10.78
2023-03-29T09:25:54.082Z,11.14
2023-03-29T09:29:14.519Z,10.97
2023-03-29T09:32:23.271Z,11.24
2023-03-29T09:35:37.286Z,11.09
2023-03-29T09:38:44.178Z,10.89
2023-03-29T09:41:52.677Z,10.79
2023-03-29T09:45:01.913Z,11.13
2023-03-29T09:48:13.474Z,11.26
2023-03-29T09:51:19.586Z,11.28
2023-03-29T09:54:23.130Z,11.44
2023-03-29T09:57:45.421Z,11.49
2023-03-29T10:00:49.909Z,11.62
2023-03-29T10:03:53.663Z,11.63
2023-03-29T10:06:59.891Z,11.64
2023-03-29T10:10:03.154Z,12.02
2023-03-29T10:13:11.213Z,11.66
2023-03-29T10:16:21.233Z,11.86
2023-03-29T10:19:30.265Z,11.73
2023-03-29T10:22:37.971Z,11.86
2023-03-29T10:25:42.783Z,11.76
2023-03-29T10:28:45.141Z,11.93
2023-03-29T10:31:47.992Z,12.03
2023-03-29T10:34:51.933Z,12.01
2023-03-29T10:37:56.507Z,12.44
2023-03-29T10:41:07.898Z,12.42
2023-03-29T10:44:26.425Z,12.59
2023-03-29T10:47:34.297Z,12.75
2023-03-29T10:50:38.093Z,12.51
2023-03-29T10:53:40.140Z,12.80
2023-03-29T10:56:49.095Z,12.94
2023-03-29T10:59:57.922Z,13.50
2023-03-29T11:03:16.639Z,13.46
2023-03-29T11:06:28.910Z,13.51
2023-03-29T11:09:45.675Z,13.68
2023-03-29T11:12:53.677Z,14.09
2023-03-29T11:16:09.551Z,13.54
2023-03-29T11:19:33.596Z,13.83
2023-03-29T11:22:46.228Z,13.83
2023-03-29T11:25:59.459Z,14.08
2023-03-29T11:29:10.982Z,14.49
2023-03-29T11:32:18.928Z,14.97
2023-03-29T11:35:37.931Z,14.32
2023-03-29T11:38:47.896Z,14.57
2023-03-29T11:41:54.184Z,15.03
2023-03-29T11:45:00.111Z,14.93
2023-03-29T11:48:07.591Z,14.57
2023-03-29T11:51:16.259Z,15.43
2023-03-29T11:54:22.754Z,15.45
2023-03-29T11:57:30.888Z,15.46
2023-03-29T12:00:38.785Z,15.10
2023-03-29T12:03:47.202Z,15.16
2023-03-29T12:06:54.786Z,15.31
2023-03-29T12:10:01.890Z,15.49
2023-03-29T12:13:07.627Z,14.69
2023-03-29T12:16:17.658Z,14.84
2023-03-29T12:19:24.378Z,14.82
2023-03-29T12:22:27.380Z,15.25
2023-03-29T12:25:40.850Z,15.11
2023-03-29T12:29:10.020Z,15.47
2023-03-29T12:32:32.944Z,16.12
2023-03-29T12:35:58.973Z,16.11
2023-03-29T12:39:20.886Z,16.20
2023-03-29T12:42:46.597Z,16.45
2023-03-29T12:46:11.589Z,16.61
2023-03-29T12:49:26.908Z,17.14
2023-03-29T12:52:32.823Z,16.59
2023-03-29T12:55:48.188Z,16.56
2023-03-29T12:59:07.615Z,16.53
2023-03-29T13:02:34.765Z,16.45
2023-03-29T13:05:39.762Z,16.38
2023-03-29T13:08:43.237Z,16.71
2023-03-29T13:11:51.547Z,16.32
2023-03-29T13:14:56.621Z,16.40
2023-03-29T13:18:09.621Z,16.45
2023-03-29T13:21:22.888Z,16.61
2023-03-29T13:24:38.238Z,16.94
2023-03-29T13:27:48.011Z,17.96
2023-03-29T13:30:59.520Z,18.16
2023-03-29T13:34:05.587Z,18.21
2023-03-29T13:37:23.096Z,18.32
2023-03-29T13:40:31.682Z,18.76
2023-03-29T13:43:37.737Z,18.98
2023-03-29T13:46:41.988Z,18.50
2023-03-29T13:49:51.759Z,19.03
2023-03-29T13:53:02.732Z,18.16
2023-03-29T13:56:08.164Z,18.57
2023-03-29T13:59:15.078Z,19.15
2023-03-29T14:02:25.327Z,19.33
2023-03-29T14:05:32.100Z,18.89
2023-03-29T14:08:39.366Z,18.99
2023-03-29T14:11:45.300Z,18.72
2023-03-29T14:14:57.763Z,17.99
2023-03-29T14:18:01.473Z,18.14
2023-03-29T14:21:06.496Z,18.39
2023-03-29T14:24:12.833Z,18.37
2023-03-29T14:27:16.198Z,18.48
2023-03-29T14:30:25.657Z,18.05
2023-03-29T14:33:28.899Z,17.84
2023-03-29T14:36:32.454Z,17.62
2023-03-29T14:39:36.248Z,17.46
2023-03-29T14:42:38.567Z,17.37
2023-03-29T14:45:40.551Z,17.23
2023-03-29T14:48:43.710Z,16.83
2023-03-29T14:51:46.962Z,16.52
2023-03-29T14:54:52.971Z,16.53
2023-03-29T14:57:55.733Z,16.49
2023-03-29T15:01:04.654Z,16.50
2023-03-29T15:04:09.035Z,16.41
2023-03-29T15:07:10.942Z,16.49
2023-03-29T15:10:19.509Z,16.49
2023-03-29T15:13:24.591Z,16.62
2023-03-29T15:16:30.485Z,16.54
2023-03-29T15:19:36.361Z,16.54
2023-03-29T15:22:39.296Z,16.49
2023-03-29T15:25:52.438Z,16.57
2023-03-29T15:29:03.089Z,16.51
2023-03-29T15:32:05.374Z,16.61
2023-03-29T15:35:20.964Z,16.29
2023-03-29T15:38:27.670Z,16.12
2023-03-29T15:41:36.592Z,16.13
2023-03-29T15:44:39.001Z,15.92
2023-03-29T15:47:41.085Z,15.82
2023-03-29T15:50:44.230Z,15.66
2023-03-29T15:53:46.111Z,15.74
2023-03-29T15:56:52.542Z,15.71
2023-03-29T15:59:54.646Z,15.59
2023-03-29T16:02:57.244Z,15.60
2023-03-29T16:05:58.958Z,15.51
2023-03-29T16:09:01.012Z,15.49
2023-03-29T16:12:05.824Z,15.49
2023-03-29T16:15:24.459Z,15.64
2023-03-29T16:18:26.163Z,15.54
2023-03-29T16:21:29.399Z,15.55
2023-03-29T16:24:32.881Z,15.51
2023-03-29T16:27:36.387Z,15.60
2023-03-29T16:30:38.878Z,15.57
2023-03-29T16:33:41.511Z,15.50
2023-03-29T16:36:46.395Z,15.51
2023-03-29T16:39:48.444Z,15.50
2023-03-29T16:42:52.084Z,15.47
2023-03-29T16:45:53.839Z,15.42
2023-03-29T16:52:16.678Z,15.43
2023-03-29T16:55:19.078Z,15.48
2023-03-29T16:58:23.546Z,15.50
2023-03-29T17:01:25.325Z,15.45
2023-03-29T17:04:29.629Z,15.41
2023-03-29T17:07:31.403Z,15.27
2023-03-29T17:10:33.707Z,15.26
2023-03-29T17:41:31.010Z,14.72
2023-03-29T17:44:38.223Z,14.66
2023-03-29T17:47:43.286Z,14.62
2023-03-29T17:50:45.414Z,14.65
2023-03-29T17:54:04.152Z,14.54
2023-03-29T17:57:08.664Z,14.27
2023-03-29T18:00:14.289Z,14.28
2023-03-29T18:03:28.165Z,14.26
2023-03-29T18:06:29.999Z,14.30
2023-03-29T18:09:32.067Z,14.43
2023-03-29T18:12:36.255Z,14.34
2023-03-29T18:15:38.228Z,14.53
2023-03-29T18:18:41.653Z,14.49
2023-03-29T18:21:43.591Z,14.51
2023-03-29T18:24:56.456Z,14.55
2023-03-29T18:27:59.681Z,14.59
2023-03-29T18:31:01.559Z,14.60
2023-03-29T18:34:09.416Z,14.53
2023-03-29T18:37:14.887Z,14.33
2023-03-29T18:40:21.855Z,14.67
2023-03-29T18:43:27.486Z,14.63
2023-03-29T18:46:31.632Z,14.57
2023-03-29T18:49:39.299Z,14.33
2023-03-29T18:52:42.336Z,14.51
2023-03-29T18:55:44.581Z,14.59
2023-03-29T18:58:48.028Z,14.40
2023-03-29T19:01:55.049Z,14.57
2023-03-29T19:04:59.168Z,14.66
2023-03-29T19:08:02.805Z,14.61
2023-03-29T19:11:07.780Z,14.73
2023-03-29T19:14:11.002Z,14.71
2023-03-29T19:17:12.905Z,14.73
2023-03-29T19:20:14.851Z,14.67
2023-03-29T19:23:16.623Z,14.78
2023-03-29T19:26:18.671Z,14.82
2023-03-29T19:29:22.759Z,14.83
2023-03-29T19:32:24.733Z,14.88
2023-03-29T19:35:26.669Z,14.92
2023-03-29T19:38:28.591Z,14.73
2023-03-29T19:41:30.771Z,14.95
2023-03-29T19:44:35.808Z,15.02
2023-03-29T19:47:47.599Z,14.89
2023-03-29T19:50:49.575Z,15.10
2023-03-29T19:53:51.299Z,15.30
2023-03-29T19:56:57.199Z,15.40
2023-03-29T20:00:01.465Z,15.16
2023-03-29T20:03:05.186Z,14.99
2023-03-29T20:06:18.999Z,15.01
2023-03-29T20:09:20.907Z,15.18
2023-03-29T20:12:26.511Z,15.34
2023-03-29T20:15:32.178Z,15.34
2023-03-29T20:18:33.986Z,15.45
2023-03-29T20:21:38.285Z,15.40
2023-03-29T20:24:40.267Z,15.43
2023-03-29T20:27:42.732Z,15.60
2023-03-29T20:30:51.152Z,15.60
2023-03-29T20:33:57.562Z,15.40
2023-03-29T20:37:00.767Z,15.19
2023-03-29T20:40:06.520Z,14.93
2023-03-29T20:43:13.286Z,14.94
2023-03-29T20:46:22.799Z,15.12
2023-03-29T20:49:27.414Z,15.04
2023-03-29T20:52:29.357Z,15.14
2023-03-29T20:55:33.193Z,15.00
2023-03-29T20:58:34.961Z,15.30
2023-03-29T21:01:40.797Z,15.15
2023-03-29T21:04:49.737Z,15.00
2023-03-29T21:07:51.603Z,14.91
2023-03-29T21:10:56.283Z,14.98
2023-03-29T21:14:00.069Z,14.91
2023-03-29T21:17:05.630Z,14.96
2023-03-29T21:20:11.048Z,14.91
2023-03-29T21:23:13.856Z,15.02
2023-03-29T21:26:15.634Z,14.98
2023-03-29T21:29:17.374Z,15.04
2023-03-29T21:32:20.701Z,14.97
2023-03-29T21:35:25.006Z,15.32
2023-03-29T21:38:27.097Z,15.49
2023-03-29T21:41:28.942Z,15.29
2023-03-29T21:44:31.994Z,15.52
2023-03-29T21:47:40.842Z,15.51
2023-03-29T21:50:44.957Z,15.69
2023-03-29T21:53:46.849Z,15.69
2023-03-29T21:56:49.919Z,15.75
2023-03-29T21:59:51.801Z,15.83
2023-03-29T22:02:58.528Z,15.99
2023-03-29T22:06:07.917Z,15.79
2023-03-29T22:09:10.717Z,15.82
2023-03-29T22:12:12.500Z,15.89
2023-03-29T22:15:20.246Z,15.97
2023-03-29T22:18:23.640Z,15.90
2023-03-29T22:21:26.996Z,15.98
2023-03-29T22:24:29.116Z,16.08
2023-03-29T22:27:31.045Z,15.87
2023-03-29T22:30:34.708Z,15.95
2023-03-29T22:33:38.834Z,15.90
2023-03-29T22:36:40.624Z,15.78
2023-03-29T22:39:42.460Z,15.81
2023-03-29T22:42:44.461Z,15.92
2023-03-29T22:45:46.258Z,15.80
2023-03-29T22:48:50.267Z,15.83
2023-03-29T22:51:52.214Z,15.81
2023-03-29T22:54:54.171Z,15.79
2023-03-29T22:57:56.331Z,15.75
2023-03-29T23:00:58.314Z,15.74
2023-03-29T23:04:01.785Z,15.72
2023-03-29T23:07:09.101Z,15.67
2023-03-29T23:10:17.940Z,15.68
2023-03-29T23:13:29.390Z,15.59
2023-03-29T23:16:32.104Z,15.60
2023-03-29T23:19:35.298Z,15.52
2023-03-29T23:22:40.226Z,15.48
2023-03-29T23:25:46.538Z,15.47
2023-03-29T23:28:48.308Z,15.39
2023-03-29T23:31:50.197Z,15.43
2023-03-29T23:34:53.419Z,15.41
2023-03-29T23:37:55.507Z,15.47
2023-03-29T23:41:00.266Z,15.34
2023-03-29T23:44:04.256Z,15.27
2023-03-29T23:47:09.280Z,15.40
2023-03-29T23:50:16.809Z,15.46
2023-03-29T23:53:19.924Z,15.45
2023-03-29T23:56:22.921Z,15.41
2023-03-29T23:59:29.833Z,15.47
